sensor_id;sensor_type;location;lat;lon;timestamp;P1;durP1;ratioP1;P2;durP2;ratioP2
77597;SDS011;66756;42.774;23.354;2023-08-08T00:01:27;1.55;;;0.57;;
77597;SDS011;66756;42.774;23.354;2023-08-08T00:03:54;0.63;;;0.10;;
77597;SDS011;66756;42.774;23.354;2023-08-08T00:06:20;3.20;;;0.60;;
77597;SDS011;66756;42.774;23.354;2023-08-08T00:08:46;2.97;;;1.00;;
77597;SDS011;66756;42.774;23.354;2023-08-08T00:11:12;1.95;;;0.60;;
77597;SDS011;66756;42.774;23.354;2023-08-08T00:13:38;2.05;;;1.90;;
77597;SDS011;66756;42.774;23.354;2023-08-08T00:16:04;1.60;;;0.80;;
77597;SDS011;66756;42.774;23.354;2023-08-08T00:18:30;1.50;;;0.93;;
77597;SDS011;66756;42.774;23.354;2023-08-08T00:20:56;1.50;;;1.40;;
77597;SDS011;66756;42.774;23.354;2023-08-08T00:23:22;1.02;;;0.80;;
77597;SDS011;66756;42.774;23.354;2023-08-08T00:25:48;1.20;;;1.08;;
77597;SDS011;66756;42.774;23.354;2023-08-08T00:28:16;1.10;;;0.25;;
77597;SDS011;66756;42.774;23.354;2023-08-08T00:30:43;1.60;;;0.77;;
77597;SDS011;66756;42.774;23.354;2023-08-08T00:33:09;3.28;;;0.68;;
77597;SDS011;66756;42.774;23.354;2023-08-08T00:35:35;1.88;;;0.88;;
77597;SDS011;66756;42.774;23.354;2023-08-08T00:38:01;1.98;;;0.88;;
77597;SDS011;66756;42.774;23.354;2023-08-08T00:40:27;1.73;;;1.08;;
77597;SDS011;66756;42.774;23.354;2023-08-08T00:42:53;1.88;;;0.75;;
77597;SDS011;66756;42.774;23.354;2023-08-08T00:45:19;2.03;;;0.93;;
77597;SDS011;66756;42.774;23.354;2023-08-08T00:47:45;2.75;;;1.17;;
77597;SDS011;66756;42.774;23.354;2023-08-08T00:50:11;1.83;;;0.85;;
77597;SDS011;66756;42.774;23.354;2023-08-08T00:52:38;1.40;;;0.40;;
77597;SDS011;66756;42.774;23.354;2023-08-08T00:55:05;1.63;;;1.25;;
77597;SDS011;66756;42.774;23.354;2023-08-08T00:57:32;1.45;;;1.08;;
77597;SDS011;66756;42.774;23.354;2023-08-08T00:59:59;1.65;;;0.63;;
77597;SDS011;66756;42.774;23.354;2023-08-08T01:02:25;2.10;;;0.88;;
77597;SDS011;66756;42.774;23.354;2023-08-08T01:04:51;1.85;;;0.63;;
77597;SDS011;66756;42.774;23.354;2023-08-08T01:07:30;1.48;;;0.95;;
77597;SDS011;66756;42.774;23.354;2023-08-08T01:12:26;2.63;;;1.02;;
77597;SDS011;66756;42.774;23.354;2023-08-08T01:14:52;1.90;;;0.82;;
77597;SDS011;66756;42.774;23.354;2023-08-08T01:17:20;1.10;;;0.75;;
77597;SDS011;66756;42.774;23.354;2023-08-08T01:19:47;1.85;;;0.93;;
77597;SDS011;66756;42.774;23.354;2023-08-08T01:22:23;1.65;;;1.55;;
77597;SDS011;66756;42.774;23.354;2023-08-08T01:24:51;2.75;;;0.73;;
77597;SDS011;66756;42.774;23.354;2023-08-08T01:27:17;2.92;;;1.08;;
77597;SDS011;66756;42.774;23.354;2023-08-08T01:29:43;3.20;;;0.70;;
77597;SDS011;66756;42.774;23.354;2023-08-08T01:32:10;1.60;;;0.60;;
77597;SDS011;66756;42.774;23.354;2023-08-08T01:34:36;1.75;;;1.35;;
77597;SDS011;66756;42.774;23.354;2023-08-08T01:37:07;1.58;;;1.00;;
77597;SDS011;66756;42.774;23.354;2023-08-08T01:39:35;1.40;;;0.85;;
77597;SDS011;66756;42.774;23.354;2023-08-08T01:42:03;2.15;;;0.52;;
77597;SDS011;66756;42.774;23.354;2023-08-08T01:44:32;2.15;;;0.90;;
77597;SDS011;66756;42.774;23.354;2023-08-08T01:47:00;1.40;;;0.77;;
77597;SDS011;66756;42.774;23.354;2023-08-08T01:49:26;2.08;;;0.30;;
77597;SDS011;66756;42.774;23.354;2023-08-08T01:51:52;1.90;;;0.85;;
77597;SDS011;66756;42.774;23.354;2023-08-08T01:54:19;4.10;;;0.93;;
77597;SDS011;66756;42.774;23.354;2023-08-08T01:56:45;2.03;;;0.90;;
77597;SDS011;66756;42.774;23.354;2023-08-08T01:59:11;2.85;;;0.70;;
77597;SDS011;66756;42.774;23.354;2023-08-08T02:01:37;7.43;;;0.70;;
77597;SDS011;66756;42.774;23.354;2023-08-08T02:04:03;1.60;;;0.77;;
77597;SDS011;66756;42.774;23.354;2023-08-08T02:06:29;1.85;;;0.70;;
77597;SDS011;66756;42.774;23.354;2023-08-08T02:08:55;1.52;;;0.55;;
77597;SDS011;66756;42.774;23.354;2023-08-08T02:11:22;1.42;;;0.95;;
77597;SDS011;66756;42.774;23.354;2023-08-08T02:13:48;1.92;;;0.68;;
77597;SDS011;66756;42.774;23.354;2023-08-08T02:16:14;1.92;;;0.63;;
77597;SDS011;66756;42.774;23.354;2023-08-08T02:18:40;2.90;;;1.85;;
77597;SDS011;66756;42.774;23.354;2023-08-08T02:21:09;2.72;;;1.23;;
77597;SDS011;66756;42.774;23.354;2023-08-08T02:23:35;2.35;;;1.45;;
77597;SDS011;66756;42.774;23.354;2023-08-08T02:26:01;1.95;;;1.30;;
77597;SDS011;66756;42.774;23.354;2023-08-08T02:28:27;1.10;;;0.75;;
77597;SDS011;66756;42.774;23.354;2023-08-08T02:30:54;1.23;;;0.30;;
77597;SDS011;66756;42.774;23.354;2023-08-08T02:33:20;1.42;;;1.02;;
77597;SDS011;66756;42.774;23.354;2023-08-08T02:35:46;3.45;;;1.00;;
77597;SDS011;66756;42.774;23.354;2023-08-08T02:38:12;2.25;;;0.93;;
77597;SDS011;66756;42.774;23.354;2023-08-08T02:40:38;2.10;;;1.15;;
77597;SDS011;66756;42.774;23.354;2023-08-08T02:43:04;2.17;;;0.98;;
77597;SDS011;66756;42.774;23.354;2023-08-08T02:45:31;3.72;;;1.10;;
77597;SDS011;66756;42.774;23.354;2023-08-08T02:47:57;2.08;;;1.38;;
77597;SDS011;66756;42.774;23.354;2023-08-08T02:50:23;1.90;;;1.40;;
77597;SDS011;66756;42.774;23.354;2023-08-08T02:52:49;1.88;;;0.95;;
77597;SDS011;66756;42.774;23.354;2023-08-08T02:55:15;3.38;;;1.25;;
77597;SDS011;66756;42.774;23.354;2023-08-08T02:57:41;3.15;;;0.43;;
77597;SDS011;66756;42.774;23.354;2023-08-08T03:00:07;2.25;;;1.52;;
77597;SDS011;66756;42.774;23.354;2023-08-08T03:02:34;2.85;;;2.17;;
77597;SDS011;66756;42.774;23.354;2023-08-08T03:05:00;2.28;;;1.90;;
77597;SDS011;66756;42.774;23.354;2023-08-08T03:07:26;4.05;;;2.38;;
77597;SDS011;66756;42.774;23.354;2023-08-08T03:09:52;2.95;;;0.52;;
77597;SDS011;66756;42.774;23.354;2023-08-08T03:12:18;3.72;;;1.58;;
77597;SDS011;66756;42.774;23.354;2023-08-08T03:14:44;2.42;;;1.77;;
77597;SDS011;66756;42.774;23.354;2023-08-08T03:17:10;2.55;;;1.80;;
77597;SDS011;66756;42.774;23.354;2023-08-08T03:19:37;2.05;;;0.80;;
77597;SDS011;66756;42.774;23.354;2023-08-08T03:22:03;1.80;;;0.90;;
77597;SDS011;66756;42.774;23.354;2023-08-08T03:24:29;2.72;;;2.35;;
77597;SDS011;66756;42.774;23.354;2023-08-08T03:26:55;2.63;;;1.90;;
77597;SDS011;66756;42.774;23.354;2023-08-08T03:29:21;2.80;;;1.85;;
77597;SDS011;66756;42.774;23.354;2023-08-08T03:31:47;3.35;;;2.10;;
77597;SDS011;66756;42.774;23.354;2023-08-08T03:34:13;2.97;;;2.67;;
77597;SDS011;66756;42.774;23.354;2023-08-08T03:36:40;2.78;;;2.28;;
77597;SDS011;66756;42.774;23.354;2023-08-08T03:39:06;3.13;;;2.80;;
77597;SDS011;66756;42.774;23.354;2023-08-08T03:41:33;3.05;;;2.50;;
77597;SDS011;66756;42.774;23.354;2023-08-08T03:43:59;3.83;;;2.80;;
77597;SDS011;66756;42.774;23.354;2023-08-08T03:46:27;3.17;;;1.52;;
77597;SDS011;66756;42.774;23.354;2023-08-08T03:48:53;2.72;;;2.25;;
77597;SDS011;66756;42.774;23.354;2023-08-08T03:51:19;3.88;;;2.03;;
77597;SDS011;66756;42.774;23.354;2023-08-08T03:53:46;2.90;;;2.55;;
77597;SDS011;66756;42.774;23.354;2023-08-08T03:56:12;4.60;;;2.83;;
77597;SDS011;66756;42.774;23.354;2023-08-08T03:58:38;3.60;;;1.83;;
77597;SDS011;66756;42.774;23.354;2023-08-08T04:01:04;4.07;;;3.15;;
77597;SDS011;66756;42.774;23.354;2023-08-08T04:03:30;3.85;;;3.47;;
77597;SDS011;66756;42.774;23.354;2023-08-08T04:05:56;3.40;;;3.05;;
77597;SDS011;66756;42.774;23.354;2023-08-08T04:08:22;4.25;;;3.85;;
77597;SDS011;66756;42.774;23.354;2023-08-08T04:10:48;3.63;;;3.33;;
77597;SDS011;66756;42.774;23.354;2023-08-08T04:13:14;3.85;;;3.55;;
77597;SDS011;66756;42.774;23.354;2023-08-08T04:15:40;5.05;;;3.75;;
77597;SDS011;66756;42.774;23.354;2023-08-08T04:18:06;5.38;;;3.72;;
77597;SDS011;66756;42.774;23.354;2023-08-08T04:20:33;3.95;;;3.20;;
77597;SDS011;66756;42.774;23.354;2023-08-08T04:22:59;4.57;;;3.80;;
77597;SDS011;66756;42.774;23.354;2023-08-08T04:25:25;4.00;;;3.60;;
77597;SDS011;66756;42.774;23.354;2023-08-08T04:27:52;4.68;;;4.03;;
77597;SDS011;66756;42.774;23.354;2023-08-08T04:30:18;5.00;;;4.03;;
77597;SDS011;66756;42.774;23.354;2023-08-08T04:32:44;3.72;;;3.08;;
77597;SDS011;66756;42.774;23.354;2023-08-08T04:35:10;6.63;;;4.25;;
77597;SDS011;66756;42.774;23.354;2023-08-08T04:37:36;4.70;;;3.15;;
77597;SDS011;66756;42.774;23.354;2023-08-08T04:40:03;3.97;;;3.20;;
77597;SDS011;66756;42.774;23.354;2023-08-08T04:42:29;7.10;;;3.80;;
77597;SDS011;66756;42.774;23.354;2023-08-08T04:44:55;6.55;;;5.10;;
77597;SDS011;66756;42.774;23.354;2023-08-08T04:47:21;6.18;;;5.38;;
77597;SDS011;66756;42.774;23.354;2023-08-08T04:49:47;6.38;;;5.78;;
77597;SDS011;66756;42.774;23.354;2023-08-08T04:52:13;5.90;;;5.40;;
77597;SDS011;66756;42.774;23.354;2023-08-08T04:54:39;5.13;;;4.63;;
77597;SDS011;66756;42.774;23.354;2023-08-08T04:57:05;6.50;;;4.95;;
77597;SDS011;66756;42.774;23.354;2023-08-08T04:59:31;4.75;;;4.35;;
77597;SDS011;66756;42.774;23.354;2023-08-08T05:01:57;6.32;;;5.35;;
77597;SDS011;66756;42.774;23.354;2023-08-08T05:04:23;6.18;;;5.20;;
77597;SDS011;66756;42.774;23.354;2023-08-08T05:06:49;5.53;;;5.03;;
77597;SDS011;66756;42.774;23.354;2023-08-08T05:09:15;4.80;;;4.22;;
77597;SDS011;66756;42.774;23.354;2023-08-08T05:11:41;5.30;;;4.53;;
77597;SDS011;66756;42.774;23.354;2023-08-08T05:14:07;4.90;;;4.40;;
77597;SDS011;66756;42.774;23.354;2023-08-08T05:16:33;5.15;;;4.53;;
77597;SDS011;66756;42.774;23.354;2023-08-08T05:18:59;4.47;;;2.97;;
77597;SDS011;66756;42.774;23.354;2023-08-08T05:21:26;5.30;;;4.80;;
77597;SDS011;66756;42.774;23.354;2023-08-08T05:23:52;4.82;;;4.43;;
77597;SDS011;66756;42.774;23.354;2023-08-08T05:26:18;3.67;;;3.35;;
77597;SDS011;66756;42.774;23.354;2023-08-08T05:28:44;3.88;;;3.53;;
77597;SDS011;66756;42.774;23.354;2023-08-08T05:31:10;3.85;;;3.45;;
77597;SDS011;66756;42.774;23.354;2023-08-08T05:33:36;2.50;;;1.70;;
77597;SDS011;66756;42.774;23.354;2023-08-08T05:36:02;3.38;;;3.08;;
77597;SDS011;66756;42.774;23.354;2023-08-08T05:38:28;5.60;;;3.50;;
77597;SDS011;66756;42.774;23.354;2023-08-08T05:40:54;3.78;;;3.47;;
77597;SDS011;66756;42.774;23.354;2023-08-08T05:43:20;3.38;;;3.05;;
77597;SDS011;66756;42.774;23.354;2023-08-08T05:45:46;2.70;;;2.00;;
77597;SDS011;66756;42.774;23.354;2023-08-08T05:48:12;3.13;;;2.85;;
77597;SDS011;66756;42.774;23.354;2023-08-08T05:50:39;3.75;;;2.60;;
77597;SDS011;66756;42.774;23.354;2023-08-08T05:53:05;4.80;;;2.80;;
77597;SDS011;66756;42.774;23.354;2023-08-08T05:55:31;3.13;;;2.83;;
77597;SDS011;66756;42.774;23.354;2023-08-08T05:57:57;2.80;;;2.60;;
77597;SDS011;66756;42.774;23.354;2023-08-08T06:00:23;2.72;;;2.53;;
77597;SDS011;66756;42.774;23.354;2023-08-08T06:02:49;2.63;;;2.42;;
77597;SDS011;66756;42.774;23.354;2023-08-08T06:05:19;2.33;;;1.70;;
77597;SDS011;66756;42.774;23.354;2023-08-08T06:07:47;3.28;;;3.08;;
77597;SDS011;66756;42.774;23.354;2023-08-08T06:10:13;2.60;;;1.75;;
77597;SDS011;66756;42.774;23.354;2023-08-08T06:12:39;3.03;;;2.53;;
77597;SDS011;66756;42.774;23.354;2023-08-08T06:15:05;2.97;;;2.67;;
77597;SDS011;66756;42.774;23.354;2023-08-08T06:17:32;3.72;;;2.67;;
77597;SDS011;66756;42.774;23.354;2023-08-08T06:19:58;2.22;;;1.63;;
77597;SDS011;66756;42.774;23.354;2023-08-08T06:22:24;2.70;;;2.50;;
77597;SDS011;66756;42.774;23.354;2023-08-08T06:24:50;3.90;;;2.95;;
77597;SDS011;66756;42.774;23.354;2023-08-08T06:27:17;2.88;;;2.67;;
77597;SDS011;66756;42.774;23.354;2023-08-08T06:29:43;2.63;;;2.42;;
77597;SDS011;66756;42.774;23.354;2023-08-08T06:32:09;4.20;;;3.20;;
77597;SDS011;66756;42.774;23.354;2023-08-08T06:34:35;3.17;;;2.95;;
77597;SDS011;66756;42.774;23.354;2023-08-08T06:37:01;3.08;;;2.78;;
77597;SDS011;66756;42.774;23.354;2023-08-08T06:39:27;3.05;;;2.80;;
77597;SDS011;66756;42.774;23.354;2023-08-08T06:41:53;4.15;;;2.78;;
77597;SDS011;66756;42.774;23.354;2023-08-08T06:44:19;3.92;;;3.03;;
77597;SDS011;66756;42.774;23.354;2023-08-08T06:46:45;2.80;;;2.50;;
77597;SDS011;66756;42.774;23.354;2023-08-08T06:49:11;3.17;;;2.97;;
77597;SDS011;66756;42.774;23.354;2023-08-08T06:51:37;3.33;;;3.03;;
77597;SDS011;66756;42.774;23.354;2023-08-08T06:54:04;3.45;;;3.15;;
77597;SDS011;66756;42.774;23.354;2023-08-08T06:56:30;2.60;;;1.40;;
77597;SDS011;66756;42.774;23.354;2023-08-08T06:58:56;2.22;;;1.48;;
77597;SDS011;66756;42.774;23.354;2023-08-08T07:01:22;3.40;;;2.50;;
77597;SDS011;66756;42.774;23.354;2023-08-08T07:03:48;2.38;;;2.17;;
77597;SDS011;66756;42.774;23.354;2023-08-08T07:06:16;2.63;;;2.42;;
77597;SDS011;66756;42.774;23.354;2023-08-08T07:08:42;2.70;;;2.10;;
77597;SDS011;66756;42.774;23.354;2023-08-08T07:11:08;2.90;;;1.92;;
77597;SDS011;66756;42.774;23.354;2023-08-08T07:13:35;2.25;;;2.05;;
77597;SDS011;66756;42.774;23.354;2023-08-08T07:16:01;2.40;;;2.05;;
77597;SDS011;66756;42.774;23.354;2023-08-08T07:18:27;2.80;;;2.60;;
77597;SDS011;66756;42.774;23.354;2023-08-08T07:20:53;3.03;;;2.03;;
77597;SDS011;66756;42.774;23.354;2023-08-08T07:23:21;2.45;;;2.25;;
77597;SDS011;66756;42.774;23.354;2023-08-08T07:25:47;2.78;;;2.28;;
77597;SDS011;66756;42.774;23.354;2023-08-08T07:28:13;2.35;;;2.15;;
77597;SDS011;66756;42.774;23.354;2023-08-08T07:30:39;2.40;;;2.13;;
77597;SDS011;66756;42.774;23.354;2023-08-08T07:33:06;2.85;;;2.65;;
77597;SDS011;66756;42.774;23.354;2023-08-08T07:35:35;3.00;;;2.78;;
77597;SDS011;66756;42.774;23.354;2023-08-08T07:38:01;2.22;;;2.03;;
77597;SDS011;66756;42.774;23.354;2023-08-08T07:40:27;2.10;;;1.92;;
77597;SDS011;66756;42.774;23.354;2023-08-08T07:42:53;2.53;;;1.77;;
77597;SDS011;66756;42.774;23.354;2023-08-08T07:45:19;2.17;;;2.00;;
77597;SDS011;66756;42.774;23.354;2023-08-08T07:47:46;3.55;;;1.10;;
77597;SDS011;66756;42.774;23.354;2023-08-08T07:50:12;1.85;;;1.60;;
77597;SDS011;66756;42.774;23.354;2023-08-08T07:55:42;1.98;;;1.80;;
77597;SDS011;66756;42.774;23.354;2023-08-08T07:58:08;1.42;;;1.33;;
77597;SDS011;66756;42.774;23.354;2023-08-08T08:00:34;4.13;;;1.50;;
77597;SDS011;66756;42.774;23.354;2023-08-08T08:03:00;2.10;;;1.92;;
77597;SDS011;66756;42.774;23.354;2023-08-08T08:05:27;1.90;;;1.80;;
77597;SDS011;66756;42.774;23.354;2023-08-08T08:07:53;1.17;;;0.60;;
77597;SDS011;66756;42.774;23.354;2023-08-08T08:10:19;2.40;;;2.20;;
77597;SDS011;66756;42.774;23.354;2023-08-08T08:12:45;1.27;;;1.17;;
77597;SDS011;66756;42.774;23.354;2023-08-08T08:15:11;1.35;;;1.25;;
77597;SDS011;66756;42.774;23.354;2023-08-08T08:17:37;1.42;;;1.33;;
77597;SDS011;66756;42.774;23.354;2023-08-08T08:20:03;1.33;;;1.13;;
77597;SDS011;66756;42.774;23.354;2023-08-08T08:22:33;1.50;;;1.40;;
77597;SDS011;66756;42.774;23.354;2023-08-08T08:24:59;1.35;;;1.25;;
77597;SDS011;66756;42.774;23.354;2023-08-08T08:27:26;2.13;;;1.40;;
77597;SDS011;66756;42.774;23.354;2023-08-08T08:29:52;1.58;;;1.48;;
77597;SDS011;66756;42.774;23.354;2023-08-08T08:32:18;1.60;;;1.50;;
77597;SDS011;66756;42.774;23.354;2023-08-08T08:34:45;1.58;;;1.48;;
77597;SDS011;66756;42.774;23.354;2023-08-08T08:37:11;1.23;;;0.50;;
77597;SDS011;66756;42.774;23.354;2023-08-08T08:39:37;3.85;;;1.30;;
77597;SDS011;66756;42.774;23.354;2023-08-08T08:42:03;2.25;;;1.80;;
77597;SDS011;66756;42.774;23.354;2023-08-08T08:44:31;1.55;;;1.45;;
77597;SDS011;66756;42.774;23.354;2023-08-08T08:46:58;2.47;;;2.28;;
77597;SDS011;66756;42.774;23.354;2023-08-08T08:49:25;1.55;;;1.40;;
77597;SDS011;66756;42.774;23.354;2023-08-08T08:51:54;2.40;;;2.05;;
77597;SDS011;66756;42.774;23.354;2023-08-08T08:54:21;1.83;;;1.73;;
77597;SDS011;66756;42.774;23.354;2023-08-08T08:56:48;2.25;;;2.08;;
77597;SDS011;66756;42.774;23.354;2023-08-08T08:59:14;1.65;;;1.55;;
77597;SDS011;66756;42.774;23.354;2023-08-08T09:01:40;1.42;;;1.27;;
77597;SDS011;66756;42.774;23.354;2023-08-08T09:04:06;1.85;;;1.75;;
77597;SDS011;66756;42.774;23.354;2023-08-08T09:06:33;1.10;;;1.00;;
77597;SDS011;66756;42.774;23.354;2023-08-08T09:08:59;2.45;;;2.25;;
77597;SDS011;66756;42.774;23.354;2023-08-08T09:11:25;1.85;;;1.52;;
77597;SDS011;66756;42.774;23.354;2023-08-08T09:13:51;2.13;;;2.00;;
77597;SDS011;66756;42.774;23.354;2023-08-08T09:16:17;0.93;;;0.50;;
77597;SDS011;66756;42.774;23.354;2023-08-08T09:18:44;2.65;;;2.45;;
77597;SDS011;66756;42.774;23.354;2023-08-08T09:21:10;2.47;;;2.15;;
77597;SDS011;66756;42.774;23.354;2023-08-08T09:23:36;1.92;;;1.83;;
77597;SDS011;66756;42.774;23.354;2023-08-08T09:26:04;1.25;;;0.80;;
77597;SDS011;66756;42.774;23.354;2023-08-08T09:28:30;2.00;;;1.00;;
77597;SDS011;66756;42.774;23.354;2023-08-08T09:30:57;2.08;;;1.98;;
77597;SDS011;66756;42.774;23.354;2023-08-08T09:33:23;2.20;;;2.10;;
77597;SDS011;66756;42.774;23.354;2023-08-08T09:35:49;1.10;;;0.55;;
77597;SDS011;66756;42.774;23.354;2023-08-08T09:38:15;2.22;;;2.13;;
77597;SDS011;66756;42.774;23.354;2023-08-08T09:40:41;2.20;;;2.10;;
77597;SDS011;66756;42.774;23.354;2023-08-08T09:43:08;2.30;;;2.15;;
77597;SDS011;66756;42.774;23.354;2023-08-08T09:45:40;2.97;;;2.78;;
77597;SDS011;66756;42.774;23.354;2023-08-08T09:48:07;3.17;;;2.47;;
77597;SDS011;66756;42.774;23.354;2023-08-08T09:50:33;2.53;;;2.38;;
77597;SDS011;66756;42.774;23.354;2023-08-08T09:53:00;2.28;;;2.17;;
77597;SDS011;66756;42.774;23.354;2023-08-08T09:55:27;2.58;;;2.15;;
77597;SDS011;66756;42.774;23.354;2023-08-08T09:57:54;1.15;;;0.90;;
77597;SDS011;66756;42.774;23.354;2023-08-08T10:00:21;2.25;;;2.05;;
77597;SDS011;66756;42.774;23.354;2023-08-08T10:02:47;3.08;;;2.30;;
77597;SDS011;66756;42.774;23.354;2023-08-08T10:05:13;2.58;;;2.38;;
77597;SDS011;66756;42.774;23.354;2023-08-08T10:07:40;2.30;;;2.10;;
77597;SDS011;66756;42.774;23.354;2023-08-08T10:10:07;2.95;;;2.75;;
77597;SDS011;66756;42.774;23.354;2023-08-08T10:12:35;2.33;;;2.20;;
77597;SDS011;66756;42.774;23.354;2023-08-08T10:15:02;2.30;;;2.17;;
77597;SDS011;66756;42.774;23.354;2023-08-08T10:17:28;2.85;;;2.65;;
77597;SDS011;66756;42.774;23.354;2023-08-08T10:20:00;3.22;;;2.83;;
77597;SDS011;66756;42.774;23.354;2023-08-08T10:22:34;2.70;;;2.50;;
77597;SDS011;66756;42.774;23.354;2023-08-08T10:25:03;2.67;;;2.22;;
77597;SDS011;66756;42.774;23.354;2023-08-08T10:27:32;2.20;;;2.10;;
77597;SDS011;66756;42.774;23.354;2023-08-08T10:30:08;2.42;;;2.22;;
77597;SDS011;66756;42.774;23.354;2023-08-08T10:32:45;2.70;;;2.50;;
77597;SDS011;66756;42.774;23.354;2023-08-08T10:35:11;2.60;;;2.40;;
77597;SDS011;66756;42.774;23.354;2023-08-08T10:37:38;2.72;;;2.53;;
77597;SDS011;66756;42.774;23.354;2023-08-08T10:40:04;2.50;;;2.33;;
77597;SDS011;66756;42.774;23.354;2023-08-08T10:42:32;2.75;;;2.55;;
77597;SDS011;66756;42.774;23.354;2023-08-08T10:44:59;1.92;;;1.83;;
77597;SDS011;66756;42.774;23.354;2023-08-08T10:47:26;2.30;;;2.20;;
77597;SDS011;66756;42.774;23.354;2023-08-08T10:50:06;2.10;;;1.90;;
77597;SDS011;66756;42.774;23.354;2023-08-08T10:57:53;2.70;;;2.50;;
77597;SDS011;66756;42.774;23.354;2023-08-08T11:00:20;2.17;;;2.08;;
77597;SDS011;66756;42.774;23.354;2023-08-08T11:02:47;2.08;;;1.98;;
77597;SDS011;66756;42.774;23.354;2023-08-08T11:05:15;2.35;;;2.22;;
77597;SDS011;66756;42.774;23.354;2023-08-08T11:07:41;2.17;;;2.08;;
77597;SDS011;66756;42.774;23.354;2023-08-08T11:10:08;2.22;;;2.13;;
77597;SDS011;66756;42.774;23.354;2023-08-08T11:12:34;2.40;;;2.20;;
77597;SDS011;66756;42.774;23.354;2023-08-08T11:15:00;1.85;;;1.75;;
77597;SDS011;66756;42.774;23.354;2023-08-08T11:17:26;1.60;;;1.50;;
77597;SDS011;66756;42.774;23.354;2023-08-08T11:19:53;2.42;;;2.22;;
77597;SDS011;66756;42.774;23.354;2023-08-08T11:22:20;3.95;;;2.30;;
77597;SDS011;66756;42.774;23.354;2023-08-08T11:24:48;2.70;;;2.50;;
77597;SDS011;66756;42.774;23.354;2023-08-08T11:27:15;2.10;;;1.70;;
77597;SDS011;66756;42.774;23.354;2023-08-08T11:29:48;2.38;;;2.28;;
77597;SDS011;66756;42.774;23.354;2023-08-08T11:32:15;1.80;;;1.70;;
77597;SDS011;66756;42.774;23.354;2023-08-08T11:34:41;1.85;;;1.75;;
77597;SDS011;66756;42.774;23.354;2023-08-08T11:37:08;2.28;;;2.08;;
77597;SDS011;66756;42.774;23.354;2023-08-08T11:39:34;1.80;;;1.70;;
77597;SDS011;66756;42.774;23.354;2023-08-08T11:42:00;1.88;;;1.77;;
77597;SDS011;66756;42.774;23.354;2023-08-08T11:44:26;1.95;;;1.85;;
77597;SDS011;66756;42.774;23.354;2023-08-08T11:46:52;2.30;;;1.75;;
77597;SDS011;66756;42.774;23.354;2023-08-08T11:49:18;2.13;;;1.92;;
77597;SDS011;66756;42.774;23.354;2023-08-08T11:51:45;1.90;;;1.80;;
77597;SDS011;66756;42.774;23.354;2023-08-08T11:54:11;1.80;;;1.70;;
77597;SDS011;66756;42.774;23.354;2023-08-08T11:56:37;1.75;;;1.65;;
77597;SDS011;66756;42.774;23.354;2023-08-08T11:59:04;1.92;;;1.83;;
77597;SDS011;66756;42.774;23.354;2023-08-08T12:01:32;1.95;;;1.80;;
77597;SDS011;66756;42.774;23.354;2023-08-08T12:03:58;3.28;;;1.70;;
77597;SDS011;66756;42.774;23.354;2023-08-08T12:06:28;2.03;;;1.88;;
77597;SDS011;66756;42.774;23.354;2023-08-08T12:08:54;2.47;;;2.38;;
77597;SDS011;66756;42.774;23.354;2023-08-08T12:11:20;1.23;;;0.70;;
77597;SDS011;66756;42.774;23.354;2023-08-08T12:13:47;2.40;;;1.80;;
77597;SDS011;66756;42.774;23.354;2023-08-08T12:16:13;2.13;;;2.03;;
77597;SDS011;66756;42.774;23.354;2023-08-08T12:18:40;1.85;;;1.75;;
77597;SDS011;66756;42.774;23.354;2023-08-08T12:21:06;2.03;;;1.85;;
77597;SDS011;66756;42.774;23.354;2023-08-08T12:23:33;1.77;;;1.63;;
77597;SDS011;66756;42.774;23.354;2023-08-08T12:25:59;1.70;;;1.60;;
77597;SDS011;66756;42.774;23.354;2023-08-08T12:28:25;1.65;;;1.55;;
77597;SDS011;66756;42.774;23.354;2023-08-08T12:30:51;1.23;;;0.60;;
77597;SDS011;66756;42.774;23.354;2023-08-08T12:33:17;1.95;;;1.75;;
77597;SDS011;66756;42.774;23.354;2023-08-08T12:35:43;2.50;;;1.60;;
77597;SDS011;66756;42.774;23.354;2023-08-08T12:38:09;2.47;;;1.25;;
77597;SDS011;66756;42.774;23.354;2023-08-08T12:40:36;1.98;;;1.77;;
77597;SDS011;66756;42.774;23.354;2023-08-08T12:43:02;1.52;;;1.42;;
77597;SDS011;66756;42.774;23.354;2023-08-08T12:45:28;1.55;;;1.45;;
77597;SDS011;66756;42.774;23.354;2023-08-08T12:47:54;1.92;;;1.83;;
77597;SDS011;66756;42.774;23.354;2023-08-08T12:50:20;1.73;;;1.02;;
77597;SDS011;66756;42.774;23.354;2023-08-08T12:52:46;1.55;;;1.40;;
77597;SDS011;66756;42.774;23.354;2023-08-08T12:55:12;1.83;;;1.73;;
77597;SDS011;66756;42.774;23.354;2023-08-08T12:57:41;2.08;;;1.73;;
77597;SDS011;66756;42.774;23.354;2023-08-08T13:00:07;1.25;;;1.15;;
77597;SDS011;66756;42.774;23.354;2023-08-08T13:02:34;1.60;;;1.50;;
77597;SDS011;66756;42.774;23.354;2023-08-08T13:05:00;1.20;;;1.10;;
77597;SDS011;66756;42.774;23.354;2023-08-08T13:07:28;0.80;;;0.55;;
77597;SDS011;66756;42.774;23.354;2023-08-08T13:09:54;1.45;;;1.35;;
77597;SDS011;66756;42.774;23.354;2023-08-08T13:12:20;1.65;;;1.55;;
77597;SDS011;66756;42.774;23.354;2023-08-08T13:14:47;1.02;;;0.93;;
77597;SDS011;66756;42.774;23.354;2023-08-08T13:17:13;1.58;;;1.48;;
77597;SDS011;66756;42.774;23.354;2023-08-08T13:19:40;1.35;;;1.15;;
77597;SDS011;66756;42.774;23.354;2023-08-08T13:22:06;1.65;;;1.55;;
77597;SDS011;66756;42.774;23.354;2023-08-08T13:24:32;1.55;;;1.45;;
77597;SDS011;66756;42.774;23.354;2023-08-08T13:26:58;1.15;;;1.08;;
77597;SDS011;66756;42.774;23.354;2023-08-08T13:29:24;3.05;;;1.30;;
77597;SDS011;66756;42.774;23.354;2023-08-08T13:31:50;1.20;;;1.10;;
77597;SDS011;66756;42.774;23.354;2023-08-08T13:34:17;1.70;;;0.50;;
77597;SDS011;66756;42.774;23.354;2023-08-08T13:36:43;1.38;;;1.27;;
77597;SDS011;66756;42.774;23.354;2023-08-08T13:39:09;1.40;;;1.30;;
77597;SDS011;66756;42.774;23.354;2023-08-08T13:41:35;1.33;;;1.23;;
77597;SDS011;66756;42.774;23.354;2023-08-08T13:44:01;1.60;;;1.50;;
77597;SDS011;66756;42.774;23.354;2023-08-08T13:46:27;1.63;;;1.52;;
77597;SDS011;66756;42.774;23.354;2023-08-08T13:48:53;1.42;;;1.20;;
77597;SDS011;66756;42.774;23.354;2023-08-08T13:51:19;1.65;;;1.55;;
77597;SDS011;66756;42.774;23.354;2023-08-08T13:53:46;1.75;;;1.27;;
77597;SDS011;66756;42.774;23.354;2023-08-08T13:56:14;0.80;;;0.40;;
77597;SDS011;66756;42.774;23.354;2023-08-08T13:58:40;1.42;;;1.33;;
77597;SDS011;66756;42.774;23.354;2023-08-08T14:01:06;1.27;;;1.08;;
77597;SDS011;66756;42.774;23.354;2023-08-08T14:03:32;1.30;;;1.20;;
77597;SDS011;66756;42.774;23.354;2023-08-08T14:05:58;1.48;;;0.40;;
77597;SDS011;66756;42.774;23.354;2023-08-08T14:08:24;1.23;;;1.13;;
77597;SDS011;66756;42.774;23.354;2023-08-08T14:10:50;1.67;;;1.58;;
77597;SDS011;66756;42.774;23.354;2023-08-08T14:13:16;1.20;;;1.10;;
77597;SDS011;66756;42.774;23.354;2023-08-08T14:15:44;1.48;;;1.38;;
77597;SDS011;66756;42.774;23.354;2023-08-08T14:18:10;1.25;;;1.15;;
77597;SDS011;66756;42.774;23.354;2023-08-08T14:20:36;1.40;;;1.13;;
77597;SDS011;66756;42.774;23.354;2023-08-08T14:23:03;1.42;;;1.33;;
77597;SDS011;66756;42.774;23.354;2023-08-08T14:25:29;0.75;;;0.25;;
77597;SDS011;66756;42.774;23.354;2023-08-08T14:27:55;1.70;;;0.57;;
77597;SDS011;66756;42.774;23.354;2023-08-08T14:30:25;1.63;;;1.35;;
77597;SDS011;66756;42.774;23.354;2023-08-08T14:32:52;1.65;;;1.15;;
77597;SDS011;66756;42.774;23.354;2023-08-08T14:35:19;1.30;;;1.20;;
77597;SDS011;66756;42.774;23.354;2023-08-08T14:37:45;1.27;;;1.00;;
77597;SDS011;66756;42.774;23.354;2023-08-08T14:40:11;1.77;;;1.58;;